Time,TemperatureF,DewpointF,PressureIn,WindDirection,WindDirectionDegrees,WindSpeedMPH,WindSpeedGustMPH,Humidity,HourlyPrecipIn,Conditions,Clouds,dailyrainin,SoftwareType,DateUTC
2015-09-03 00:10:00,53.1,49.0,30.00,WSW,249,3.0,5.0,86,0.00,SCT,,0.00,WeatherDisplay:10.37,2015-09-02 23:10:00,
2015-09-03 01:00:00,52.2,48.1,30.00,WSW,238,3.0,5.0,86,0.00,SCT,,0.00,WeatherDisplay:10.37,2015-09-03 00:00:00,
2015-09-03 01:40:00,51.4,47.4,30.00,WSW,254,3.0,7.0,86,0.00,SCT,,0.00,WeatherDisplay:10.37,2015-09-03 00:40:00,
2015-09-03 02:10:00,51.1,47.0,30.00,SW,226,5.0,6.0,86,0.00,SCT,,0.00,WeatherDisplay:10.37,2015-09-03 01:10:00,
2015-09-03 07:30:00,50.4,46.3,29.97,WSW,256,3.0,6.0,86,0.00,SCT,,0.00,WeatherDisplay:10.37,2015-09-03 06:30:00,
2015-09-03 07:40:00,50.4,46.3,29.97,WSW,244,5.0,8.0,86,0.00,SCT,,0.00,WeatherDisplay:10.37,2015-09-03 06:40:00,
2015-09-03 07:50:00,50.2,46.2,29.97,SW,214,5.0,7.0,86,0.00,SCT,,0.00,WeatherDisplay:10.37,2015-09-03 06:50:00,
2015-09-03 08:00:00,50.2,46.2,29.97,SW,232,5.0,10.0,86,0.00,SCT,,0.00,WeatherDisplay:10.37,2015-09-03 07:00:00,
2015-09-03 08:10:00,50.2,46.2,29.97,WSW,249,2.0,8.0,86,0.00,SCT,,0.00,WeatherDisplay:10.37,2015-09-03 07:10:00,
2015-09-03 08:20:00,50.4,46.3,29.97,SW,236,5.0,6.0,86,0.00,SCT,,0.00,WeatherDisplay:10.37,2015-09-03 07:20:00,
2015-09-03 08:30:00,50.4,46.6,29.97,WSW,241,5.0,7.0,87,0.00,SCT,,0.00,WeatherDisplay:10.37,2015-09-03 07:30:00,
2015-09-03 08:40:00,50.5,46.8,29.97,WSW,248,3.0,10.0,87,0.00,SCT,,0.00,WeatherDisplay:10.37,2015-09-03 07:40:00,
2015-09-03 08:50:00,50.5,46.8,29.97,WSW,242,3.0,6.0,87,0.00,SCT,,0.00,WeatherDisplay:10.37,2015-09-03 07:50:00,
2015-09-03 09:00:00,50.5,46.8,29.97,SW,235,5.0,9.0,87,0.00,SCT,,0.00,WeatherDisplay:10.37,2015-09-03 08:00:00,
2015-09-03 09:10:00,50.5,46.8,29.97,WSW,258,3.0,7.0,87,0.00,SCT,,0.00,WeatherDisplay:10.37,2015-09-03 08:10:00,
2015-09-03 09:20:00,50.8,47.1,29.97,WSW,247,3.0,8.0,87,0.00,SCT,,0.00,WeatherDisplay:10.37,2015-09-03 08:20:00,
2015-09-03 09:30:00,51.1,47.3,29.97,SW,223,2.0,5.0,87,0.00,SCT,,0.00,WeatherDisplay:10.37,2015-09-03 08:30:00,
2015-09-03 09:40:00,52.3,48.6,29.97,SW,231,2.0,5.0,87,0.00,SCT,,0.00,WeatherDisplay:10.37,2015-09-03 08:40:00,
2015-09-03 09:50:00,52.2,48.1,29.97,West,266,2.0,6.0,86,0.00,SCT,,0.00,WeatherDisplay:10.37,2015-09-03 08:50:00,
2015-09-03 10:00:00,53.1,49.0,29.97,WSW,258,3.0,6.0,86,0.00,SCT,,0.00,WeatherDisplay:10.37,2015-09-03 09:00:00,
2015-09-03 10:10:00,53.6,49.2,29.97,NW,317,5.0,6.0,85,0.00,SCT,,0.00,WeatherDisplay:10.37,2015-09-03 09:10:00,
2015-09-03 10:20:00,53.7,49.3,29.97,WSW,244,2.0,9.0,85,0.00,SCT,,0.00,WeatherDisplay:10.37,2015-09-03 09:20:00,
2015-09-03 10:30:00,54.3,49.6,29.97,West,269,2.0,4.0,84,0.00,SCT,,0.00,WeatherDisplay:10.37,2015-09-03 09:30:00,
2015-09-03 10:40:00,55.0,49.6,29.97,North,10,3.0,5.0,82,0.00,SCT,,0.00,WeatherDisplay:10.37,2015-09-03 09:40:00,
2015-09-03 10:50:00,55.0,50.0,29.97,West,274,3.0,7.0,83,0.00,SCT,,0.00,WeatherDisplay:10.37,2015-09-03 09:50:00,
2015-09-03 11:00:00,55.4,49.7,29.97,SW,232,6.0,12.0,81,0.00,SCT,,0.00,WeatherDisplay:10.37,2015-09-03 10:00:00,
2015-09-03 11:10:00,55.6,49.8,29.97,WSW,247,5.0,5.0,81,0.00,SCT,,0.00,WeatherDisplay:10.37,2015-09-03 10:10:00,
2015-09-03 11:20:00,55.8,49.7,29.97,WNW,285,2.0,6.0,80,0.00,SCT,,0.00,WeatherDisplay:10.37,2015-09-03 10:20:00,
2015-09-03 11:30:00,56.1,50.0,29.97,West,262,5.0,7.0,80,0.00,SCT,,0.00,WeatherDisplay:10.37,2015-09-03 10:30:00,
2015-09-03 11:40:00,56.1,49.7,29.97,West,260,3.0,14.0,79,0.00,SCT,,0.00,WeatherDisplay:10.37,2015-09-03 10:40:00,
2015-09-03 11:50:00,56.5,50.4,29.97,WSW,237,6.0,12.0,80,0.00,SCT,,0.00,WeatherDisplay:10.37,2015-09-03 10:50:00,
2015-09-03 12:00:00,56.5,50.0,29.97,West,277,5.0,7.0,79,0.00,SCT,,0.00,WeatherDisplay:10.37,2015-09-03 11:00:00,
2015-09-03 12:10:00,57.2,50.0,29.96,WNW,298,5.0,8.0,77,0.00,SCT,,0.00,WeatherDisplay:10.37,2015-09-03 11:10:00,
2015-09-03 12:20:00,57.6,50.4,29.94,NNW,345,2.0,8.0,77,0.00,SCT,,0.00,WeatherDisplay:10.37,2015-09-03 11:20:00,
2015-09-03 12:30:00,57.7,50.2,29.94,West,274,5.0,12.0,76,0.00,SCT,,0.00,WeatherDisplay:10.37,2015-09-03 11:30:00,
2015-09-03 12:40:00,58.3,50.4,29.94,WSW,248,6.0,8.0,75,0.00,SCT,,0.00,WeatherDisplay:10.37,2015-09-03 11:40:00,
2015-09-03 12:50:00,58.6,50.7,29.94,SW,232,6.0,8.0,75,0.00,SCT,,0.00,WeatherDisplay:10.37,2015-09-03 11:50:00,
2015-09-03 13:00:00,58.5,49.1,29.97,WSW,242,3.0,6.0,71,0.00,SCT,,0.00,WeatherDisplay:10.37,2015-09-03 12:00:00,
2015-09-03 13:10:00,58.1,49.1,29.97,WSW,246,2.0,6.0,72,0.00,SCT,,0.00,WeatherDisplay:10.37,2015-09-03 12:10:00,
2015-09-03 13:20:00,57.6,48.2,29.97,WNW,285,3.0,6.0,71,0.00,SCT,,0.00,WeatherDisplay:10.37,2015-09-03 12:20:00,
2015-09-03 13:30:00,57.6,48.2,29.94,North,354,2.0,6.0,71,0.00,SCT,,0.00,WeatherDisplay:10.37,2015-09-03 12:30:00,
2015-09-03 13:40:00,57.7,48.4,29.95,SW,222,3.0,6.0,71,0.00,SCT,,0.00,WeatherDisplay:10.37,2015-09-03 12:40:00,
2015-09-03 13:50:00,57.7,48.4,29.97,ENE,60,5.0,8.0,71,0.00,SCT,,0.00,WeatherDisplay:10.37,2015-09-03 12:50:00,
2015-09-03 14:00:00,57.7,48.4,29.97,West,270,1.0,7.0,71,0.00,SCT,,0.00,WeatherDisplay:10.37,2015-09-03 13:00:00,
2015-09-03 14:10:00,58.0,47.8,29.97,NNW,337,3.0,7.0,69,0.00,SCT,,0.00,WeatherDisplay:10.37,2015-09-03 13:10:00,
2015-09-03 14:20:00,57.6,47.5,29.97,West,273,2.0,6.0,69,0.00,SCT,,0.00,WeatherDisplay:10.37,2015-09-03 13:20:00,
2015-09-03 14:30:00,57.2,47.5,29.97,NNW,334,3.0,4.0,70,0.00,SCT,,0.00,WeatherDisplay:10.37,2015-09-03 13:30:00,
2015-09-03 14:40:00,56.8,48.3,29.97,NNE,18,1.0,4.0,73,0.00,SCT,,0.00,WeatherDisplay:10.37,2015-09-03 13:40:00,
2015-09-03 14:50:00,56.8,48.3,29.97,NNE,14,0.0,3.0,73,0.00,SCT,,0.00,WeatherDisplay:10.37,2015-09-03 13:50:00,
2015-09-03 15:00:00,56.8,47.9,29.97,NW,304,0.0,3.0,72,0.00,SCT,,0.00,WeatherDisplay:10.37,2015-09-03 14:00:00,
2015-09-03 15:10:00,56.7,47.7,29.97,North,349,2.0,6.0,72,0.00,SCT,,0.00,WeatherDisplay:10.37,2015-09-03 14:10:00,
2015-09-03 15:20:00,56.3,47.4,29.97,North,351,3.0,8.0,72,0.00,SCT,,0.00,WeatherDisplay:10.37,2015-09-03 14:20:00,
2015-09-03 15:30:00,55.9,47.0,29.97,NNE,26,8.0,8.0,72,0.00,SCT,,0.00,WeatherDisplay:10.37,2015-09-03 14:30:00,
2015-09-03 15:40:00,55.8,47.2,29.97,North,355,3.0,6.0,73,0.00,SCT,,0.00,WeatherDisplay:10.37,2015-09-03 14:40:00,
2015-09-03 15:50:00,55.8,47.6,29.97,WSW,242,3.0,6.0,74,0.00,SCT,,0.00,WeatherDisplay:10.37,2015-09-03 14:50:00,
2015-09-03 16:00:00,55.4,47.6,29.97,WSW,245,2.0,6.0,75,0.00,SCT,,0.00,WeatherDisplay:10.37,2015-09-03 15:00:00,
2015-09-03 16:10:00,55.4,47.6,29.97,SW,226,1.0,4.0,75,0.00,SCT,,0.00,WeatherDisplay:10.37,2015-09-03 15:10:00,
2015-09-03 16:20:00,55.4,47.6,29.97,SSW,211,2.0,4.0,75,0.00,SCT,,0.00,WeatherDisplay:10.37,2015-09-03 15:20:00,
2015-09-03 16:30:00,55.0,47.6,29.97,WSW,250,3.0,5.0,76,0.00,SCT,,0.00,WeatherDisplay:10.37,2015-09-03 15:30:00,
2015-09-03 16:40:00,55.1,47.7,29.97,SW,234,0.0,3.0,76,0.00,SCT,,0.00,WeatherDisplay:10.37,2015-09-03 15:40:00,
2015-09-03 16:50:00,55.2,47.4,29.97,North,10,0.0,4.0,75,0.00,SCT,,0.00,WeatherDisplay:10.37,2015-09-03 15:50:00,
2015-09-03 17:00:00,55.2,47.4,29.97,NE,45,1.0,3.0,75,0.00,SCT,,0.00,WeatherDisplay:10.37,2015-09-03 16:00:00,